sensor_id;sensor_type;location;lat;lon;timestamp;P1;durP1;ratioP1;P2;durP2;ratioP2
22894;SDS011;11614;52.494;6.976;2023-07-31T00:01:39;3.33;;;1.87;;
22894;SDS011;11614;52.494;6.976;2023-07-31T00:04:05;3.00;;;1.47;;
22894;SDS011;11614;52.494;6.976;2023-07-31T00:06:31;3.67;;;1.60;;
22894;SDS011;11614;52.494;6.976;2023-07-31T00:08:57;2.93;;;1.27;;
22894;SDS011;11614;52.494;6.976;2023-07-31T00:11:22;5.00;;;1.70;;
22894;SDS011;11614;52.494;6.976;2023-07-31T00:13:48;3.23;;;2.00;;
22894;SDS011;11614;52.494;6.976;2023-07-31T00:16:14;1.87;;;0.90;;
22894;SDS011;11614;52.494;6.976;2023-07-31T00:18:40;3.73;;;1.43;;
22894;SDS011;11614;52.494;6.976;2023-07-31T00:21:06;3.30;;;1.80;;
22894;SDS011;11614;52.494;6.976;2023-07-31T00:23:32;1.50;;;1.00;;
22894;SDS011;11614;52.494;6.976;2023-07-31T00:25:59;1.70;;;1.03;;
22894;SDS011;11614;52.494;6.976;2023-07-31T00:28:24;2.43;;;1.30;;
22894;SDS011;11614;52.494;6.976;2023-07-31T00:30:51;2.00;;;1.17;;
22894;SDS011;11614;52.494;6.976;2023-07-31T00:33:17;2.53;;;1.30;;
22894;SDS011;11614;52.494;6.976;2023-07-31T00:35:43;1.63;;;1.07;;
22894;SDS011;11614;52.494;6.976;2023-07-31T00:38:09;2.63;;;1.33;;
22894;SDS011;11614;52.494;6.976;2023-07-31T00:40:35;2.20;;;1.30;;
22894;SDS011;11614;52.494;6.976;2023-07-31T00:43:04;2.30;;;1.37;;
22894;SDS011;11614;52.494;6.976;2023-07-31T00:45:30;3.90;;;1.40;;
22894;SDS011;11614;52.494;6.976;2023-07-31T00:47:56;1.70;;;1.30;;
22894;SDS011;11614;52.494;6.976;2023-07-31T00:50:24;1.83;;;1.30;;
22894;SDS011;11614;52.494;6.976;2023-07-31T00:52:50;2.30;;;1.00;;
22894;SDS011;11614;52.494;6.976;2023-07-31T00:55:16;2.50;;;1.50;;
22894;SDS011;11614;52.494;6.976;2023-07-31T00:57:42;2.37;;;1.40;;
22894;SDS011;11614;52.494;6.976;2023-07-31T01:00:10;2.37;;;1.30;;
22894;SDS011;11614;52.494;6.976;2023-07-31T01:02:36;1.53;;;1.03;;
22894;SDS011;11614;52.494;6.976;2023-07-31T01:05:03;1.97;;;1.37;;
22894;SDS011;11614;52.494;6.976;2023-07-31T01:10:19;2.53;;;1.30;;
22894;SDS011;11614;52.494;6.976;2023-07-31T01:12:46;1.53;;;0.97;;
22894;SDS011;11614;52.494;6.976;2023-07-31T01:15:13;1.90;;;1.17;;
22894;SDS011;11614;52.494;6.976;2023-07-31T01:17:41;2.67;;;1.30;;
22894;SDS011;11614;52.494;6.976;2023-07-31T01:20:11;2.27;;;0.93;;
22894;SDS011;11614;52.494;6.976;2023-07-31T01:28:19;1.33;;;0.60;;
22894;SDS011;11614;52.494;6.976;2023-07-31T01:30:49;2.00;;;0.50;;
22894;SDS011;11614;52.494;6.976;2023-07-31T01:33:15;1.27;;;0.60;;
22894;SDS011;11614;52.494;6.976;2023-07-31T01:35:43;1.10;;;0.50;;
22894;SDS011;11614;52.494;6.976;2023-07-31T01:38:11;1.13;;;0.50;;
22894;SDS011;11614;52.494;6.976;2023-07-31T01:40:37;2.33;;;0.90;;
22894;SDS011;11614;52.494;6.976;2023-07-31T01:43:03;2.30;;;0.50;;
22894;SDS011;11614;52.494;6.976;2023-07-31T01:45:29;0.87;;;0.50;;
22894;SDS011;11614;52.494;6.976;2023-07-31T01:47:55;0.53;;;0.30;;
22894;SDS011;11614;52.494;6.976;2023-07-31T01:50:21;2.40;;;0.70;;
22894;SDS011;11614;52.494;6.976;2023-07-31T01:52:47;1.30;;;0.70;;
22894;SDS011;11614;52.494;6.976;2023-07-31T01:55:13;1.07;;;0.50;;
22894;SDS011;11614;52.494;6.976;2023-07-31T01:57:39;0.80;;;0.40;;
22894;SDS011;11614;52.494;6.976;2023-07-31T02:00:05;0.80;;;0.40;;
22894;SDS011;11614;52.494;6.976;2023-07-31T02:02:31;0.77;;;0.30;;
22894;SDS011;11614;52.494;6.976;2023-07-31T02:05:00;0.87;;;0.50;;
22894;SDS011;11614;52.494;6.976;2023-07-31T02:07:26;0.83;;;0.50;;
22894;SDS011;11614;52.494;6.976;2023-07-31T02:09:52;0.80;;;0.40;;
22894;SDS011;11614;52.494;6.976;2023-07-31T02:12:18;1.40;;;0.30;;
22894;SDS011;11614;52.494;6.976;2023-07-31T02:14:44;0.80;;;0.50;;
22894;SDS011;11614;52.494;6.976;2023-07-31T02:17:10;0.90;;;0.40;;
22894;SDS011;11614;52.494;6.976;2023-07-31T02:19:36;0.83;;;0.43;;
22894;SDS011;11614;52.494;6.976;2023-07-31T02:22:02;1.50;;;0.73;;
22894;SDS011;11614;52.494;6.976;2023-07-31T02:24:28;0.80;;;0.60;;
22894;SDS011;11614;52.494;6.976;2023-07-31T02:26:54;1.43;;;0.40;;
22894;SDS011;11614;52.494;6.976;2023-07-31T02:29:19;1.83;;;0.50;;
22894;SDS011;11614;52.494;6.976;2023-07-31T02:31:45;1.03;;;0.63;;
22894;SDS011;11614;52.494;6.976;2023-07-31T02:34:11;0.70;;;0.43;;
22894;SDS011;11614;52.494;6.976;2023-07-31T02:36:37;0.40;;;0.30;;
22894;SDS011;11614;52.494;6.976;2023-07-31T02:39:03;1.93;;;0.50;;
22894;SDS011;11614;52.494;6.976;2023-07-31T02:41:29;1.20;;;0.50;;
22894;SDS011;11614;52.494;6.976;2023-07-31T02:43:55;0.57;;;0.30;;
22894;SDS011;11614;52.494;6.976;2023-07-31T02:46:21;0.80;;;0.30;;
22894;SDS011;11614;52.494;6.976;2023-07-31T02:48:49;0.40;;;0.13;;
22894;SDS011;11614;52.494;6.976;2023-07-31T02:51:15;0.87;;;0.30;;
22894;SDS011;11614;52.494;6.976;2023-07-31T02:53:41;0.87;;;0.30;;
22894;SDS011;11614;52.494;6.976;2023-07-31T02:56:07;1.10;;;0.33;;
22894;SDS011;11614;52.494;6.976;2023-07-31T02:58:33;0.60;;;0.40;;
22894;SDS011;11614;52.494;6.976;2023-07-31T03:00:59;2.60;;;0.70;;
22894;SDS011;11614;52.494;6.976;2023-07-31T03:03:25;0.90;;;0.40;;
22894;SDS011;11614;52.494;6.976;2023-07-31T03:05:51;1.80;;;0.40;;
22894;SDS011;11614;52.494;6.976;2023-07-31T03:08:17;0.87;;;0.40;;
22894;SDS011;11614;52.494;6.976;2023-07-31T03:10:43;1.00;;;0.50;;
22894;SDS011;11614;52.494;6.976;2023-07-31T03:13:09;0.70;;;0.37;;
22894;SDS011;11614;52.494;6.976;2023-07-31T03:15:35;1.60;;;0.53;;
22894;SDS011;11614;52.494;6.976;2023-07-31T03:18:01;1.00;;;0.50;;
22894;SDS011;11614;52.494;6.976;2023-07-31T03:20:27;3.37;;;0.43;;
22894;SDS011;11614;52.494;6.976;2023-07-31T03:22:53;1.00;;;0.40;;
22894;SDS011;11614;52.494;6.976;2023-07-31T03:25:20;0.63;;;0.27;;
22894;SDS011;11614;52.494;6.976;2023-07-31T03:27:45;1.00;;;0.50;;
22894;SDS011;11614;52.494;6.976;2023-07-31T03:30:11;0.60;;;0.30;;
22894;SDS011;11614;52.494;6.976;2023-07-31T03:32:37;1.37;;;0.50;;
22894;SDS011;11614;52.494;6.976;2023-07-31T03:35:03;1.40;;;0.83;;
22894;SDS011;11614;52.494;6.976;2023-07-31T03:37:30;1.07;;;0.50;;
22894;SDS011;11614;52.494;6.976;2023-07-31T03:39:56;0.97;;;0.30;;
22894;SDS011;11614;52.494;6.976;2023-07-31T03:42:22;1.50;;;0.60;;
22894;SDS011;11614;52.494;6.976;2023-07-31T03:44:48;1.60;;;0.70;;
22894;SDS011;11614;52.494;6.976;2023-07-31T03:47:14;2.27;;;0.77;;
22894;SDS011;11614;52.494;6.976;2023-07-31T03:49:40;1.70;;;0.87;;
22894;SDS011;11614;52.494;6.976;2023-07-31T03:52:06;2.53;;;1.00;;
22894;SDS011;11614;52.494;6.976;2023-07-31T03:54:32;2.03;;;0.90;;
22894;SDS011;11614;52.494;6.976;2023-07-31T03:56:58;1.03;;;0.70;;
22894;SDS011;11614;52.494;6.976;2023-07-31T03:59:24;3.23;;;1.60;;
22894;SDS011;11614;52.494;6.976;2023-07-31T04:01:50;2.83;;;1.27;;
22894;SDS011;11614;52.494;6.976;2023-07-31T04:04:16;3.10;;;1.63;;
22894;SDS011;11614;52.494;6.976;2023-07-31T04:06:42;4.27;;;1.40;;
22894;SDS011;11614;52.494;6.976;2023-07-31T04:09:08;5.03;;;2.70;;
22894;SDS011;11614;52.494;6.976;2023-07-31T04:11:33;6.63;;;3.23;;
22894;SDS011;11614;52.494;6.976;2023-07-31T04:13:59;4.63;;;2.60;;
22894;SDS011;11614;52.494;6.976;2023-07-31T04:16:25;4.33;;;2.00;;
22894;SDS011;11614;52.494;6.976;2023-07-31T04:18:51;6.33;;;2.63;;
22894;SDS011;11614;52.494;6.976;2023-07-31T04:21:17;6.50;;;2.47;;
22894;SDS011;11614;52.494;6.976;2023-07-31T04:23:43;5.63;;;3.13;;
22894;SDS011;11614;52.494;6.976;2023-07-31T04:26:09;3.87;;;2.37;;
22894;SDS011;11614;52.494;6.976;2023-07-31T04:28:35;7.07;;;3.07;;
22894;SDS011;11614;52.494;6.976;2023-07-31T04:31:01;8.20;;;3.80;;
22894;SDS011;11614;52.494;6.976;2023-07-31T04:33:27;8.13;;;3.23;;
22894;SDS011;11614;52.494;6.976;2023-07-31T04:35:53;3.97;;;2.70;;
22894;SDS011;11614;52.494;6.976;2023-07-31T04:38:20;9.20;;;3.57;;
22894;SDS011;11614;52.494;6.976;2023-07-31T04:40:46;7.17;;;4.53;;
22894;SDS011;11614;52.494;6.976;2023-07-31T04:43:12;9.70;;;4.70;;
22894;SDS011;11614;52.494;6.976;2023-07-31T04:45:38;8.47;;;4.37;;
22894;SDS011;11614;52.494;6.976;2023-07-31T04:48:04;11.53;;;5.57;;
22894;SDS011;11614;52.494;6.976;2023-07-31T04:50:30;13.83;;;6.20;;
22894;SDS011;11614;52.494;6.976;2023-07-31T04:52:56;8.23;;;3.23;;
22894;SDS011;11614;52.494;6.976;2023-07-31T04:55:23;10.53;;;5.67;;
22894;SDS011;11614;52.494;6.976;2023-07-31T04:57:49;15.77;;;7.13;;
22894;SDS011;11614;52.494;6.976;2023-07-31T05:00:15;10.47;;;5.50;;
22894;SDS011;11614;52.494;6.976;2023-07-31T05:02:41;13.53;;;5.73;;
22894;SDS011;11614;52.494;6.976;2023-07-31T05:05:07;13.83;;;5.47;;
22894;SDS011;11614;52.494;6.976;2023-07-31T05:07:33;12.37;;;5.73;;
22894;SDS011;11614;52.494;6.976;2023-07-31T05:09:59;14.37;;;6.47;;
22894;SDS011;11614;52.494;6.976;2023-07-31T05:12:25;14.43;;;6.70;;
22894;SDS011;11614;52.494;6.976;2023-07-31T05:14:51;11.83;;;6.97;;
22894;SDS011;11614;52.494;6.976;2023-07-31T05:17:17;17.47;;;8.40;;
22894;SDS011;11614;52.494;6.976;2023-07-31T05:19:43;14.70;;;7.73;;
22894;SDS011;11614;52.494;6.976;2023-07-31T05:22:08;15.30;;;7.57;;
22894;SDS011;11614;52.494;6.976;2023-07-31T05:24:34;17.07;;;8.27;;
22894;SDS011;11614;52.494;6.976;2023-07-31T05:27:00;16.33;;;8.50;;
22894;SDS011;11614;52.494;6.976;2023-07-31T05:29:26;12.43;;;5.73;;
22894;SDS011;11614;52.494;6.976;2023-07-31T05:31:52;16.03;;;7.73;;
22894;SDS011;11614;52.494;6.976;2023-07-31T05:34:18;17.80;;;8.97;;
22894;SDS011;11614;52.494;6.976;2023-07-31T05:36:44;15.87;;;8.07;;
22894;SDS011;11614;52.494;6.976;2023-07-31T05:39:10;10.90;;;5.20;;
22894;SDS011;11614;52.494;6.976;2023-07-31T05:41:37;13.50;;;7.10;;
22894;SDS011;11614;52.494;6.976;2023-07-31T05:44:03;19.97;;;8.83;;
22894;SDS011;11614;52.494;6.976;2023-07-31T05:46:29;22.93;;;10.57;;
22894;SDS011;11614;52.494;6.976;2023-07-31T05:48:56;18.57;;;8.80;;
22894;SDS011;11614;52.494;6.976;2023-07-31T05:51:22;17.40;;;8.57;;
22894;SDS011;11614;52.494;6.976;2023-07-31T05:53:48;21.63;;;10.23;;
22894;SDS011;11614;52.494;6.976;2023-07-31T05:56:14;21.80;;;9.60;;
22894;SDS011;11614;52.494;6.976;2023-07-31T05:58:40;18.60;;;8.73;;
22894;SDS011;11614;52.494;6.976;2023-07-31T06:01:06;19.30;;;7.37;;
22894;SDS011;11614;52.494;6.976;2023-07-31T06:03:31;16.10;;;7.80;;
22894;SDS011;11614;52.494;6.976;2023-07-31T06:05:57;16.60;;;5.63;;
22894;SDS011;11614;52.494;6.976;2023-07-31T06:08:23;17.63;;;9.87;;
22894;SDS011;11614;52.494;6.976;2023-07-31T06:10:49;16.90;;;7.70;;
22894;SDS011;11614;52.494;6.976;2023-07-31T06:13:15;18.37;;;8.00;;
22894;SDS011;11614;52.494;6.976;2023-07-31T06:15:41;21.57;;;6.63;;
22894;SDS011;11614;52.494;6.976;2023-07-31T06:18:07;18.27;;;8.77;;
22894;SDS011;11614;52.494;6.976;2023-07-31T06:20:33;19.43;;;9.20;;
22894;SDS011;11614;52.494;6.976;2023-07-31T06:22:59;15.97;;;7.27;;
22894;SDS011;11614;52.494;6.976;2023-07-31T06:25:25;16.07;;;8.53;;
22894;SDS011;11614;52.494;6.976;2023-07-31T06:27:51;13.63;;;7.37;;
22894;SDS011;11614;52.494;6.976;2023-07-31T06:30:17;20.20;;;8.47;;
22894;SDS011;11614;52.494;6.976;2023-07-31T06:32:43;12.47;;;4.80;;
22894;SDS011;11614;52.494;6.976;2023-07-31T06:35:09;15.80;;;6.47;;
22894;SDS011;11614;52.494;6.976;2023-07-31T06:37:35;17.53;;;7.77;;
22894;SDS011;11614;52.494;6.976;2023-07-31T06:40:01;14.80;;;7.17;;
22894;SDS011;11614;52.494;6.976;2023-07-31T06:42:27;22.80;;;8.30;;
22894;SDS011;11614;52.494;6.976;2023-07-31T06:44:53;11.40;;;5.00;;
22894;SDS011;11614;52.494;6.976;2023-07-31T06:47:19;17.87;;;8.63;;
22894;SDS011;11614;52.494;6.976;2023-07-31T06:49:45;16.80;;;7.27;;
22894;SDS011;11614;52.494;6.976;2023-07-31T06:52:11;19.50;;;8.77;;
22894;SDS011;11614;52.494;6.976;2023-07-31T06:54:37;14.73;;;6.80;;
22894;SDS011;11614;52.494;6.976;2023-07-31T06:57:03;16.03;;;7.53;;
22894;SDS011;11614;52.494;6.976;2023-07-31T06:59:29;11.50;;;4.10;;
22894;SDS011;11614;52.494;6.976;2023-07-31T07:01:55;13.00;;;6.03;;
22894;SDS011;11614;52.494;6.976;2023-07-31T07:04:21;11.90;;;6.20;;
22894;SDS011;11614;52.494;6.976;2023-07-31T07:06:47;12.03;;;5.17;;
22894;SDS011;11614;52.494;6.976;2023-07-31T07:09:13;18.23;;;8.13;;
22894;SDS011;11614;52.494;6.976;2023-07-31T07:11:39;15.23;;;7.27;;
22894;SDS011;11614;52.494;6.976;2023-07-31T07:14:05;10.83;;;4.90;;
22894;SDS011;11614;52.494;6.976;2023-07-31T07:16:31;10.53;;;5.97;;
22894;SDS011;11614;52.494;6.976;2023-07-31T07:18:57;12.37;;;6.20;;
22894;SDS011;11614;52.494;6.976;2023-07-31T07:21:23;12.40;;;5.97;;
22894;SDS011;11614;52.494;6.976;2023-07-31T07:23:49;9.73;;;5.43;;
22894;SDS011;11614;52.494;6.976;2023-07-31T07:26:15;10.32;;;4.40;;
22894;SDS011;11614;52.494;6.976;2023-07-31T07:28:41;9.17;;;4.53;;
22894;SDS011;11614;52.494;6.976;2023-07-31T07:31:06;6.95;;;3.92;;
22894;SDS011;11614;52.494;6.976;2023-07-31T07:33:32;9.38;;;4.45;;
22894;SDS011;11614;52.494;6.976;2023-07-31T07:36:01;6.07;;;3.58;;
22894;SDS011;11614;52.494;6.976;2023-07-31T07:38:27;6.45;;;3.08;;
22894;SDS011;11614;52.494;6.976;2023-07-31T07:40:53;10.48;;;4.20;;
22894;SDS011;11614;52.494;6.976;2023-07-31T07:43:19;10.47;;;5.67;;
22894;SDS011;11614;52.494;6.976;2023-07-31T07:45:45;10.32;;;4.65;;
22894;SDS011;11614;52.494;6.976;2023-07-31T07:48:11;7.37;;;3.97;;
22894;SDS011;11614;52.494;6.976;2023-07-31T07:50:40;8.85;;;4.30;;
22894;SDS011;11614;52.494;6.976;2023-07-31T07:53:06;7.37;;;4.03;;
22894;SDS011;11614;52.494;6.976;2023-07-31T07:55:32;6.40;;;3.30;;
22894;SDS011;11614;52.494;6.976;2023-07-31T07:57:58;6.93;;;4.23;;
22894;SDS011;11614;52.494;6.976;2023-07-31T08:00:23;7.60;;;3.85;;
22894;SDS011;11614;52.494;6.976;2023-07-31T08:02:49;7.78;;;4.35;;
22894;SDS011;11614;52.494;6.976;2023-07-31T08:05:15;6.83;;;3.43;;
22894;SDS011;11614;52.494;6.976;2023-07-31T08:07:42;5.00;;;3.00;;
22894;SDS011;11614;52.494;6.976;2023-07-31T08:10:08;6.20;;;2.53;;
22894;SDS011;11614;52.494;6.976;2023-07-31T08:12:34;9.40;;;3.80;;
22894;SDS011;11614;52.494;6.976;2023-07-31T08:15:00;5.03;;;3.13;;
22894;SDS011;11614;52.494;6.976;2023-07-31T08:17:26;4.67;;;2.57;;
22894;SDS011;11614;52.494;6.976;2023-07-31T08:19:52;6.50;;;3.40;;
22894;SDS011;11614;52.494;6.976;2023-07-31T08:22:18;4.83;;;3.00;;
22894;SDS011;11614;52.494;6.976;2023-07-31T08:24:44;3.67;;;2.40;;
22894;SDS011;11614;52.494;6.976;2023-07-31T08:27:10;6.63;;;2.95;;
22894;SDS011;11614;52.494;6.976;2023-07-31T08:29:36;3.22;;;2.05;;
22894;SDS011;11614;52.494;6.976;2023-07-31T08:32:02;4.28;;;1.63;;
22894;SDS011;11614;52.494;6.976;2023-07-31T08:34:28;3.40;;;1.23;;
22894;SDS011;11614;52.494;6.976;2023-07-31T08:36:54;4.10;;;1.70;;
22894;SDS011;11614;52.494;6.976;2023-07-31T08:39:20;3.22;;;1.83;;
22894;SDS011;11614;52.494;6.976;2023-07-31T08:41:47;3.45;;;1.85;;
22894;SDS011;11614;52.494;6.976;2023-07-31T08:44:12;3.03;;;1.10;;
22894;SDS011;11614;52.494;6.976;2023-07-31T08:46:40;3.17;;;1.20;;
22894;SDS011;11614;52.494;6.976;2023-07-31T08:49:06;2.05;;;1.23;;
22894;SDS011;11614;52.494;6.976;2023-07-31T08:51:36;1.65;;;0.70;;
22894;SDS011;11614;52.494;6.976;2023-07-31T08:54:02;2.55;;;0.70;;
22894;SDS011;11614;52.494;6.976;2023-07-31T08:56:29;2.97;;;1.17;;
22894;SDS011;11614;52.494;6.976;2023-07-31T08:58:56;1.13;;;0.82;;
22894;SDS011;11614;52.494;6.976;2023-07-31T09:01:23;1.73;;;0.93;;
22894;SDS011;11614;52.494;6.976;2023-07-31T09:03:49;1.65;;;0.80;;
22894;SDS011;11614;52.494;6.976;2023-07-31T09:06:17;1.35;;;0.80;;
22894;SDS011;11614;52.494;6.976;2023-07-31T09:08:45;2.22;;;0.75;;
22894;SDS011;11614;52.494;6.976;2023-07-31T09:11:11;1.95;;;1.13;;
22894;SDS011;11614;52.494;6.976;2023-07-31T09:13:37;1.38;;;0.80;;
22894;SDS011;11614;52.494;6.976;2023-07-31T09:16:05;1.08;;;0.50;;
22894;SDS011;11614;52.494;6.976;2023-07-31T09:18:31;0.63;;;0.50;;
22894;SDS011;11614;52.494;6.976;2023-07-31T09:21:00;0.88;;;0.50;;
22894;SDS011;11614;52.494;6.976;2023-07-31T09:23:27;1.45;;;0.82;;
22894;SDS011;11614;52.494;6.976;2023-07-31T09:26:06;1.02;;;0.55;;
22894;SDS011;11614;52.494;6.976;2023-07-31T09:28:31;0.47;;;0.38;;
22894;SDS011;11614;52.494;6.976;2023-07-31T09:30:57;0.73;;;0.43;;
22894;SDS011;11614;52.494;6.976;2023-07-31T09:33:23;0.30;;;0.28;;
22894;SDS011;11614;52.494;6.976;2023-07-31T09:35:49;1.02;;;0.40;;
22894;SDS011;11614;52.494;6.976;2023-07-31T09:38:15;0.50;;;0.30;;
22894;SDS011;11614;52.494;6.976;2023-07-31T09:40:43;1.40;;;0.17;;
22894;SDS011;11614;52.494;6.976;2023-07-31T09:43:13;0.65;;;0.30;;
22894;SDS011;11614;52.494;6.976;2023-07-31T09:45:43;0.50;;;0.30;;
22894;SDS011;11614;52.494;6.976;2023-07-31T09:48:10;1.30;;;0.40;;
22894;SDS011;11614;52.494;6.976;2023-07-31T09:50:42;0.90;;;0.40;;
22894;SDS011;11614;52.494;6.976;2023-07-31T09:53:09;0.63;;;0.32;;
22894;SDS011;11614;52.494;6.976;2023-07-31T09:55:35;0.57;;;0.30;;
22894;SDS011;11614;52.494;6.976;2023-07-31T09:58:08;1.08;;;0.40;;
22894;SDS011;11614;52.494;6.976;2023-07-31T10:00:35;0.85;;;0.40;;
22894;SDS011;11614;52.494;6.976;2023-07-31T10:03:02;0.90;;;0.47;;
22894;SDS011;11614;52.494;6.976;2023-07-31T10:05:37;0.88;;;0.38;;
22894;SDS011;11614;52.494;6.976;2023-07-31T10:08:15;0.90;;;0.40;;
22894;SDS011;11614;52.494;6.976;2023-07-31T10:10:42;1.17;;;0.50;;
22894;SDS011;11614;52.494;6.976;2023-07-31T10:13:08;0.77;;;0.40;;
22894;SDS011;11614;52.494;6.976;2023-07-31T10:15:34;0.57;;;0.47;;
22894;SDS011;11614;52.494;6.976;2023-07-31T10:18:01;0.45;;;0.20;;
22894;SDS011;11614;52.494;6.976;2023-07-31T10:20:28;0.98;;;0.60;;
22894;SDS011;11614;52.494;6.976;2023-07-31T10:22:54;0.70;;;0.40;;
22894;SDS011;11614;52.494;6.976;2023-07-31T10:25:21;0.68;;;0.38;;
22894;SDS011;11614;52.494;6.976;2023-07-31T10:27:47;0.20;;;0.20;;
22894;SDS011;11614;52.494;6.976;2023-07-31T10:30:15;2.50;;;0.40;;
22894;SDS011;11614;52.494;6.976;2023-07-31T10:32:43;0.28;;;0.28;;
22894;SDS011;11614;52.494;6.976;2023-07-31T10:35:09;0.85;;;0.40;;
22894;SDS011;11614;52.494;6.976;2023-07-31T10:37:37;1.45;;;0.50;;
22894;SDS011;11614;52.494;6.976;2023-07-31T10:40:04;1.10;;;0.63;;
22894;SDS011;11614;52.494;6.976;2023-07-31T10:42:37;1.67;;;0.50;;
22894;SDS011;11614;52.494;6.976;2023-07-31T10:45:05;0.80;;;0.60;;
22894;SDS011;11614;52.494;6.976;2023-07-31T10:47:49;1.77;;;1.08;;
22894;SDS011;11614;52.494;6.976;2023-07-31T10:50:21;1.55;;;1.00;;
22894;SDS011;11614;52.494;6.976;2023-07-31T10:52:50;1.52;;;0.65;;
22894;SDS011;11614;52.494;6.976;2023-07-31T10:58:07;1.73;;;0.98;;
22894;SDS011;11614;52.494;6.976;2023-07-31T11:00:33;0.98;;;0.85;;
22894;SDS011;11614;52.494;6.976;2023-07-31T11:03:03;1.90;;;1.13;;
22894;SDS011;11614;52.494;6.976;2023-07-31T11:05:42;1.17;;;1.00;;
22894;SDS011;11614;52.494;6.976;2023-07-31T11:08:15;1.90;;;1.02;;
22894;SDS011;11614;52.494;6.976;2023-07-31T11:10:42;2.22;;;1.27;;
22894;SDS011;11614;52.494;6.976;2023-07-31T11:13:08;1.85;;;1.15;;
22894;SDS011;11614;52.494;6.976;2023-07-31T11:15:34;2.85;;;1.35;;
22894;SDS011;11614;52.494;6.976;2023-07-31T11:18:01;2.03;;;1.60;;
22894;SDS011;11614;52.494;6.976;2023-07-31T11:20:34;3.83;;;1.48;;
22894;SDS011;11614;52.494;6.976;2023-07-31T11:23:07;3.72;;;1.90;;
22894;SDS011;11614;52.494;6.976;2023-07-31T11:25:34;3.08;;;1.98;;
22894;SDS011;11614;52.494;6.976;2023-07-31T11:28:08;2.03;;;1.63;;
22894;SDS011;11614;52.494;6.976;2023-07-31T11:30:34;2.45;;;1.85;;
22894;SDS011;11614;52.494;6.976;2023-07-31T11:33:04;2.20;;;1.30;;
22894;SDS011;11614;52.494;6.976;2023-07-31T11:35:33;2.22;;;1.80;;
22894;SDS011;11614;52.494;6.976;2023-07-31T11:38:00;2.85;;;2.03;;
22894;SDS011;11614;52.494;6.976;2023-07-31T11:40:26;2.70;;;1.92;;
22894;SDS011;11614;52.494;6.976;2023-07-31T11:42:56;4.00;;;3.13;;
22894;SDS011;11614;52.494;6.976;2023-07-31T11:45:24;3.15;;;2.13;;
22894;SDS011;11614;52.494;6.976;2023-07-31T11:47:50;5.03;;;4.03;;
22894;SDS011;11614;52.494;6.976;2023-07-31T11:50:16;5.13;;;3.03;;
22894;SDS011;11614;52.494;6.976;2023-07-31T11:52:42;9.65;;;6.18;;
22894;SDS011;11614;52.494;6.976;2023-07-31T11:55:09;5.20;;;3.35;;
22894;SDS011;11614;52.494;6.976;2023-07-31T11:57:36;6.10;;;3.70;;
22894;SDS011;11614;52.494;6.976;2023-07-31T12:00:02;7.22;;;4.75;;
22894;SDS011;11614;52.494;6.976;2023-07-31T12:02:28;4.38;;;3.83;;
22894;SDS011;11614;52.494;6.976;2023-07-31T12:04:54;6.05;;;2.72;;
22894;SDS011;11614;52.494;6.976;2023-07-31T12:07:20;6.15;;;3.60;;
22894;SDS011;11614;52.494;6.976;2023-07-31T12:09:53;8.05;;;3.95;;
22894;SDS011;11614;52.494;6.976;2023-07-31T12:12:20;6.22;;;3.97;;
22894;SDS011;11614;52.494;6.976;2023-07-31T12:14:47;8.05;;;4.78;;
22894;SDS011;11614;52.494;6.976;2023-07-31T12:17:13;6.88;;;4.30;;
22894;SDS011;11614;52.494;6.976;2023-07-31T12:19:40;5.90;;;4.22;;
22894;SDS011;11614;52.494;6.976;2023-07-31T12:22:15;5.85;;;4.63;;
22894;SDS011;11614;52.494;6.976;2023-07-31T12:24:44;4.72;;;3.38;;
22894;SDS011;11614;52.494;6.976;2023-07-31T12:27:14;5.57;;;4.30;;
22894;SDS011;11614;52.494;6.976;2023-07-31T12:29:42;8.43;;;4.60;;
22894;SDS011;11614;52.494;6.976;2023-07-31T12:32:24;5.03;;;4.03;;
22894;SDS011;11614;52.494;6.976;2023-07-31T12:34:53;8.40;;;5.15;;
22894;SDS011;11614;52.494;6.976;2023-07-31T12:37:20;6.82;;;5.05;;
22894;SDS011;11614;52.494;6.976;2023-07-31T12:39:46;5.40;;;3.78;;
22894;SDS011;11614;52.494;6.976;2023-07-31T12:42:12;8.60;;;5.85;;
22894;SDS011;11614;52.494;6.976;2023-07-31T12:44:38;6.07;;;4.60;;
22894;SDS011;11614;52.494;6.976;2023-07-31T12:47:05;6.50;;;5.50;;
22894;SDS011;11614;52.494;6.976;2023-07-31T12:49:31;7.07;;;5.22;;
22894;SDS011;11614;52.494;6.976;2023-07-31T12:51:57;4.90;;;4.15;;
22894;SDS011;11614;52.494;6.976;2023-07-31T12:54:23;9.00;;;4.68;;
22894;SDS011;11614;52.494;6.976;2023-07-31T12:56:49;6.15;;;4.93;;
22894;SDS011;11614;52.494;6.976;2023-07-31T12:59:15;8.07;;;5.28;;
22894;SDS011;11614;52.494;6.976;2023-07-31T13:01:41;6.05;;;4.85;;
22894;SDS011;11614;52.494;6.976;2023-07-31T13:04:07;7.55;;;5.05;;
22894;SDS011;11614;52.494;6.976;2023-07-31T13:06:33;5.65;;;3.67;;
22894;SDS011;11614;52.494;6.976;2023-07-31T13:08:59;6.00;;;4.45;;
22894;SDS011;11614;52.494;6.976;2023-07-31T13:11:25;7.10;;;4.97;;
22894;SDS011;11614;52.494;6.976;2023-07-31T13:13:51;3.35;;;2.53;;
22894;SDS011;11614;52.494;6.976;2023-07-31T13:16:17;5.35;;;4.05;;
22894;SDS011;11614;52.494;6.976;2023-07-31T13:18:43;3.20;;;2.42;;
22894;SDS011;11614;52.494;6.976;2023-07-31T13:21:09;3.85;;;2.15;;
22894;SDS011;11614;52.494;6.976;2023-07-31T13:23:35;3.58;;;3.10;;
22894;SDS011;11614;52.494;6.976;2023-07-31T13:26:01;4.00;;;2.85;;
22894;SDS011;11614;52.494;6.976;2023-07-31T13:28:27;4.50;;;2.80;;
22894;SDS011;11614;52.494;6.976;2023-07-31T13:30:53;3.83;;;3.08;;
22894;SDS011;11614;52.494;6.976;2023-07-31T13:33:19;3.72;;;2.83;;
22894;SDS011;11614;52.494;6.976;2023-07-31T13:35:45;3.50;;;3.20;;
22894;SDS011;11614;52.494;6.976;2023-07-31T13:38:11;4.32;;;2.70;;
22894;SDS011;11614;52.494;6.976;2023-07-31T13:40:37;4.55;;;3.33;;
22894;SDS011;11614;52.494;6.976;2023-07-31T13:43:03;5.78;;;3.40;;
22894;SDS011;11614;52.494;6.976;2023-07-31T13:45:29;3.97;;;2.75;;
22894;SDS011;11614;52.494;6.976;2023-07-31T13:47:55;4.22;;;3.08;;
22894;SDS011;11614;52.494;6.976;2023-07-31T13:50:21;3.88;;;3.20;;
22894;SDS011;11614;52.494;6.976;2023-07-31T13:52:47;4.35;;;3.50;;
22894;SDS011;11614;52.494;6.976;2023-07-31T13:55:13;5.53;;;4.22;;
22894;SDS011;11614;52.494;6.976;2023-07-31T13:57:39;6.35;;;4.65;;
22894;SDS011;11614;52.494;6.976;2023-07-31T14:00:05;6.32;;;5.13;;
22894;SDS011;11614;52.494;6.976;2023-07-31T14:02:31;7.22;;;5.45;;
22894;SDS011;11614;52.494;6.976;2023-07-31T14:04:57;8.20;;;5.90;;
22894;SDS011;11614;52.494;6.976;2023-07-31T14:07:23;7.53;;;5.15;;
22894;SDS011;11614;52.494;6.976;2023-07-31T14:09:50;7.13;;;4.15;;
22894;SDS011;11614;52.494;6.976;2023-07-31T14:12:15;7.07;;;4.95;;
22894;SDS011;11614;52.494;6.976;2023-07-31T14:14:41;9.88;;;6.03;;
22894;SDS011;11614;52.494;6.976;2023-07-31T14:17:07;9.52;;;6.45;;
22894;SDS011;11614;52.494;6.976;2023-07-31T14:19:33;6.72;;;5.32;;
22894;SDS011;11614;52.494;6.976;2023-07-31T14:21:59;6.22;;;3.33;;
22894;SDS011;11614;52.494;6.976;2023-07-31T14:24:25;9.77;;;5.63;;
22894;SDS011;11614;52.494;6.976;2023-07-31T14:26:51;8.05;;;4.88;;
22894;SDS011;11614;52.494;6.976;2023-07-31T14:29:17;8.23;;;5.35;;
22894;SDS011;11614;52.494;6.976;2023-07-31T14:31:43;7.30;;;5.32;;
22894;SDS011;11614;52.494;6.976;2023-07-31T14:34:09;7.13;;;5.50;;
22894;SDS011;11614;52.494;6.976;2023-07-31T14:36:35;8.05;;;5.50;;
22894;SDS011;11614;52.494;6.976;2023-07-31T14:39:01;5.72;;;3.53;;
22894;SDS011;11614;52.494;6.976;2023-07-31T14:41:27;5.55;;;3.22;;
22894;SDS011;11614;52.494;6.976;2023-07-31T14:43:53;6.45;;;4.50;;
22894;SDS011;11614;52.494;6.976;2023-07-31T14:46:19;8.35;;;5.30;;
22894;SDS011;11614;52.494;6.976;2023-07-31T14:48:45;5.80;;;4.32;;
22894;SDS011;11614;52.494;6.976;2023-07-31T14:51:11;8.88;;;5.45;;
22894;SDS011;11614;52.494;6.976;2023-07-31T14:53:39;7.18;;;5.07;;